Sand Creek, Michigan
Current Conditions -  °F | °C
As of 9:53 AM on Wednesday 22 Oct 2014 (Local Time) from KADG Reporting Station
Overcast Overcast  
Wind Chill: 39°   Ceiling: 1400
Heat Index: 44°   Visibility: 10mi
Dew Point: 37°   Wind: 9mph
Humidity: 76%   Direction: 30°NNE
Pressure: 30.34"   Gusts: NA
Location:  41.83°N, 84.1°W
Report Text: KADG 221353Z AUTO 03008KT 10SM OVC014 07/03 A3034 RMK AO2 SLP282 T00670028
Loading
Personal Weather Stations






























Interactive Weather Map New forecast layout! Learn more

10-Day Weather Forecast

Advertisements
Track Severe Weather on mobile